Wood, South Dakota
Current Conditions -  °F | °C
As of 9:53 AM on Saturday 22 Nov 2014 (Local Time) from KICR Reporting Station
Clear Clear  
Wind Chill: 40°   Ceiling: Unl
Heat Index: 47°   Visibility: 10mi
Dew Point: 27°   Wind: 20mph
Humidity: 46%   Direction: 210°SSW
Pressure: 29.56"   Gusts: 26mph
Location:  43.5°N, 100.48°W
Report Text: KICR 221653Z AUTO 21017G23KT 10SM CLR 08/M03 A2956 RMK AO2 SLP017 T00831028
Loading
Personal Weather Stations






























Interactive Weather Map New forecast layout! Learn more

10-Day Weather Forecast

Advertisements
Track Severe Weather on mobile